Time;durP1;ratioP1;P1;durP2;ratioP2;P2;SDS_P1;SDS_P2;PMS_P1;PMS_P2;Temp;Humidity;BMP_temperature;BMP_pressure;BME280_temperature;BME280_humidity;BME280_pressure;Samples;Min_cycle;Max_cycle;Signal;HPM_P1;HPM_P2
2022/02/06 00:00:44;;;;;;;9.88;3.40;;;;;;;7.40;78.53;99194.16;5092061;28;20109;-62
2022/02/06 00:03:11;;;;;;;7.65;3.40;;;;;;;7.39;78.22;99189.84;5092369;28;20071;-62
2022/02/06 00:05:38;;;;;;;8.45;3.35;;;;;;;7.41;78.49;99181.91;5092522;28;20063;-63
2022/02/06 00:08:10;;;;;;;11.90;3.17;;;;;;;7.39;78.54;99166.28;5074489;28;20097;-62
2022/02/06 00:10:38;;;;;;;8.00;3.42;;;;;;;7.38;78.69;99175.06;5091373;28;20101;-62
2022/02/06 00:13:05;;;;;;;9.88;3.50;;;;;;;7.38;78.71;99175.06;5091039;28;20101;-61
2022/02/06 00:15:32;;;;;;;7.55;3.65;;;;;;;7.36;78.43;99171.69;5092559;28;20053;-60
2022/02/06 00:17:59;;;;;;;10.10;3.55;;;;;;;7.37;78.91;99157.66;5092330;28;20101;-62
2022/02/06 00:20:32;;;;;;;10.43;3.50;;;;;;;7.38;78.59;99158.50;5091810;28;20047;-61
2022/02/06 00:23:02;;;;;;;9.98;3.95;;;;;;;7.39;78.84;99158.44;5092262;28;20101;-60
2022/02/06 00:25:49;;;;;;;8.48;3.15;;;;;;;7.40;78.95;99148.81;5092075;28;20093;-61
2022/02/06 00:31:02;;;;;;;12.40;3.83;;;;;;;7.40;78.83;99140.97;5091720;28;20056;-62
2022/02/06 00:38:05;;;;;;;10.90;3.03;;;;;;;7.39;79.09;99127.00;5091676;28;20063;-64
2022/02/06 00:41:29;;;;;;;9.70;3.55;;;;;;;7.36;79.12;99095.75;5091829;28;20196;-60
2022/02/06 00:43:56;;;;;;;9.57;3.45;;;;;;;7.36;79.35;99095.75;5091860;28;20043;-61
2022/02/06 00:46:23;;;;;;;10.23;2.85;;;;;;;7.38;79.53;99096.53;5090437;28;20048;-62
2022/02/06 00:48:57;;;;;;;8.68;2.92;;;;;;;7.36;79.20;99093.13;5091691;28;20048;-61
2022/02/06 00:53:51;;;;;;;8.50;2.80;;;;;;;7.39;79.15;99089.50;5091311;28;20066;-60
2022/02/06 00:56:18;;;;;;;13.93;2.90;;;;;;;7.41;79.21;99080.63;5091602;28;20044;-60
2022/02/06 00:58:44;;;;;;;7.40;2.90;;;;;;;7.43;79.38;99063.06;5091545;28;20508;-61
2022/02/06 01:01:11;;;;;;;9.20;2.90;;;;;;;7.46;79.40;99055.97;5091107;28;20486;-63
2022/02/06 01:03:38;;;;;;;9.10;3.05;;;;;;;7.47;79.53;99057.66;5091442;28;20097;-62
2022/02/06 01:06:05;;;;;;;7.50;2.70;;;;;;;7.46;79.73;99063.81;5091621;28;20404;-61
2022/02/06 01:08:31;;;;;;;6.22;3.00;;;;;;;7.47;79.60;99048.03;5090754;28;20052;-61
2022/02/06 01:11:00;;;;;;;12.40;2.85;;;;;;;7.47;79.50;99032.31;5090882;28;20097;-61
2022/02/06 01:13:38;;;;;;;8.40;3.00;;;;;;;7.49;79.47;99032.22;5091373;28;20391;-61
2022/02/06 01:16:13;;;;;;;5.80;2.50;;;;;;;7.52;79.36;99034.69;5090679;28;20040;-60
2022/02/06 01:18:52;;;;;;;7.38;2.83;;;;;;;7.54;79.66;99043.28;5091241;28;20055;-61
2022/02/06 01:21:43;;;;;;;5.05;2.75;;;;;;;7.55;79.59;99043.19;5090931;28;20412;-60
2022/02/06 01:27:07;;;;;;;7.53;2.72;;;;;;;7.58;79.75;99018.59;5091096;28;20056;-62
2022/02/06 01:31:59;;;;;;;9.32;2.63;;;;;;;7.63;79.93;99007.88;5090980;28;20117;-61
2022/02/06 01:34:36;;;;;;;6.15;2.75;;;;;;;7.64;79.71;99007.81;5091187;28;20051;-61
2022/02/06 01:37:18;;;;;;;6.78;2.53;;;;;;;7.67;79.93;98994.50;5091207;28;20056;-61
2022/02/06 01:40:01;;;;;;;9.75;2.63;;;;;;;7.67;79.80;98996.31;5090784;28;20070;-61
2022/02/06 01:42:33;;;;;;;5.55;3.17;;;;;;;7.68;79.89;98985.75;5090960;28;20044;-62
2022/02/06 01:45:22;;;;;;;3.83;2.40;;;;;;;7.72;79.92;98996.03;5090701;28;20466;-61
2022/02/06 02:27:56;;;;;;;6.68;2.50;;;;;;;8.01;80.02;98899.16;5094433;28;20052;-62
2022/02/06 02:31:19;;;;;;;10.98;2.70;;;;;;;8.01;79.77;98891.28;5094104;28;20458;-61
2022/02/06 02:46:52;;;;;;;7.45;3.08;;;;;;;8.04;79.96;98883.25;5093990;28;20675;-61
2022/02/06 02:49:22;;;;;;;7.75;2.80;;;;;;;8.01;80.16;98872.94;5093751;28;20052;-60
2022/02/06 02:51:50;;;;;;;9.10;2.78;;;;;;;8.02;80.13;98874.63;5093644;28;20036;-60
2022/02/06 02:54:24;;;;;;;6.57;2.28;;;;;;;8.04;79.96;98878.81;5093743;28;20562;-62
2022/02/06 03:00:20;;;;;;;8.60;2.30;;;;;;;8.06;80.04;98849.91;5091688;28;20040;-60
2022/02/06 03:02:48;;;;;;;7.60;2.30;;;;;;;8.05;80.16;98856.94;5093629;28;20044;-61
2022/02/06 03:05:14;;;;;;;6.18;2.55;;;;;;;8.05;79.97;98835.13;5093689;28;20090;-61
2022/02/06 03:07:41;;;;;;;6.38;2.00;;;;;;;8.04;80.26;98829.03;5093123;28;20040;-61
2022/02/06 03:10:09;;;;;;;6.60;2.30;;;;;;;8.06;80.17;98823.69;5093310;28;20106;-61
2022/02/06 03:12:37;;;;;;;2.63;1.83;;;;;;;8.07;80.23;98831.47;5093424;28;20471;-61
2022/02/06 03:15:19;;;;;;;5.10;2.38;;;;;;;8.07;80.00;98814.88;5093232;28;20381;-61
2022/02/06 03:17:56;;;;;;;4.78;2.30;;;;;;;8.07;80.34;98817.50;5093632;28;20133;-60
2022/02/06 03:20:23;;;;;;;7.43;2.20;;;;;;;8.08;80.44;98813.97;5093252;28;20462;-62
2022/02/06 03:22:52;;;;;;;8.75;2.20;;;;;;;8.10;80.23;98793.75;5093190;28;20097;-61
2022/02/06 03:25:22;;;;;;;5.78;2.40;;;;;;;8.12;80.38;98802.38;5093650;28;20040;-62
2022/02/06 03:27:50;;;;;;;8.65;2.80;;;;;;;8.12;80.07;98797.13;5092139;28;20052;-62
2022/02/06 03:30:18;;;;;;;9.25;2.35;;;;;;;8.13;80.15;98800.56;5092627;28;20036;-64
2022/02/06 03:32:45;;;;;;;4.20;2.47;;;;;;;8.13;80.21;98785.69;5093081;28;20221;-61
2022/02/06 03:35:12;;;;;;;6.45;2.35;;;;;;;8.12;80.24;98797.13;5093233;28;20048;-61
2022/02/06 03:37:40;;;;;;;6.68;2.30;;;;;;;8.11;80.25;98771.81;5092065;28;20110;-60
2022/02/06 03:40:17;;;;;;;6.68;2.50;;;;;;;8.12;80.19;98781.41;5092672;28;20047;-62
2022/02/06 03:42:57;;;;;;;6.32;2.47;;;;;;;8.12;80.23;98760.44;5093155;28;20056;-62
2022/02/06 03:45:31;;;;;;;5.10;2.58;;;;;;;8.09;80.51;98784.19;5092768;28;20054;-61
2022/02/06 03:48:09;;;;;;;7.82;2.40;;;;;;;8.12;80.43;98780.53;5078192;28;20052;-61
2022/02/06 03:50:36;;;;;;;6.70;2.08;;;;;;;8.14;80.71;98770.78;5092709;28;20109;-61
2022/02/06 03:53:03;;;;;;;5.38;2.58;;;;;;;8.14;80.80;98771.63;5092693;28;20048;-61
2022/02/06 03:55:32;;;;;;;9.63;2.28;;;;;;;8.15;80.84;98775.13;5092407;28;20098;-61
2022/02/06 03:57:58;;;;;;;5.43;2.13;;;;;;;8.16;80.44;98785.50;5092777;28;20052;-61
2022/02/06 04:00:26;;;;;;;6.88;2.08;;;;;;;8.14;80.62;98771.63;5092508;28;20518;-61
2022/02/06 04:02:52;;;;;;;4.00;2.13;;;;;;;8.21;80.83;98765.09;5092469;28;20052;-61
2022/02/06 04:05:19;;;;;;;3.65;1.65;;;;;;;8.19;80.77;98782.66;5092574;28;20093;-62
2022/02/06 04:07:47;;;;;;;7.03;2.45;;;;;;;8.21;80.69;98762.47;5092581;28;20090;-63
2022/02/06 04:10:16;;;;;;;7.82;2.47;;;;;;;8.25;80.69;98751.75;5092094;28;20494;-62
2022/02/06 04:12:44;;;;;;;4.55;2.22;;;;;;;8.28;80.73;98749.81;5092605;28;20450;-61
2022/02/06 04:15:22;;;;;;;8.25;2.08;;;;;;;8.30;80.52;98741.84;5092608;28;20055;-60
2022/02/06 04:17:56;;;;;;;7.70;2.03;;;;;;;8.32;80.37;98729.47;5092613;28;20048;-61
2022/02/06 04:20:22;;;;;;;6.05;2.13;;;;;;;8.33;80.36;98732.00;5091982;28;20052;-62
2022/02/06 04:22:49;;;;;;;3.08;1.60;;;;;;;8.33;80.65;98744.25;5092133;28;20113;-61
2022/02/06 04:25:15;;;;;;;4.65;1.80;;;;;;;8.36;80.52;98730.94;5091928;28;20070;-61
2022/02/06 04:27:42;;;;;;;6.57;1.92;;;;;;;8.35;80.91;98729.28;5091011;28;20051;-63
2022/02/06 04:30:09;;;;;;;5.78;2.00;;;;;;;8.37;80.79;98742.28;5091971;28;20121;-62
2022/02/06 04:32:36;;;;;;;3.65;1.83;;;;;;;8.38;80.79;98709.88;5090781;28;20069;-63
2022/02/06 04:35:02;;;;;;;6.03;2.20;;;;;;;8.38;80.66;98702.84;5091580;28;20450;-62
2022/02/06 04:37:38;;;;;;;3.60;1.63;;;;;;;8.41;80.42;98707.88;5092067;28;20401;-59
2022/02/06 04:40:14;;;;;;;9.32;2.00;;;;;;;8.45;80.71;98714.59;5091574;28;20484;-60
2022/02/06 04:46:12;;;;;;;8.00;2.45;;;;;;;8.46;80.44;98689.25;5091833;28;20048;-59
2022/02/06 04:48:34;;;;;;;6.70;2.13;;;;;;;8.50;80.56;98693.34;5084366;28;20580;-61
2022/02/06 04:53:50;;;;;;;6.20;1.80;;;;;;;8.48;80.06;98688.19;5092075;28;20074;-60
2022/02/06 05:15:59;;;;;;;5.68;2.13;;;;;;;8.51;80.19;98631.22;5078573;28;20036;-62
2022/02/06 05:19:05;;;;;;;3.00;1.25;;;;;;;8.51;80.13;98650.44;5091327;28;20044;-61
2022/02/06 05:21:50;;;;;;;2.33;1.20;;;;;;;8.53;80.37;98643.34;5090731;28;20040;-62
2022/02/06 05:29:29;;;;;;;2.20;1.40;;;;;;;8.54;80.33;98616.16;5090332;28;20036;-61
2022/02/06 05:32:12;;;;;;;5.07;1.65;;;;;;;8.55;80.01;98619.63;5090892;28;20747;-63
2022/02/06 05:34:39;;;;;;;5.47;1.20;;;;;;;8.56;80.16;98600.34;5090021;28;20048;-61
2022/02/06 05:37:06;;;;;;;2.53;1.42;;;;;;;8.58;80.23;98606.31;5091080;28;20105;-61
2022/02/06 05:39:32;;;;;;;3.80;1.20;;;;;;;8.60;80.32;98610.50;5091069;28;20051;-61
2022/02/06 05:41:59;;;;;;;3.63;1.20;;;;;;;8.62;79.98;98614.78;5091226;28;20044;-59
2022/02/06 05:44:26;;;;;;;4.82;1.40;;;;;;;8.61;80.14;98598.22;5090853;28;20519;-60
2022/02/06 05:46:52;;;;;;;4.45;1.38;;;;;;;8.62;80.20;98599.91;5090612;28;20086;-59
2022/02/06 05:49:20;;;;;;;6.45;1.70;;;;;;;8.62;79.99;98589.41;5090225;28;20083;-59
2022/02/06 05:51:48;;;;;;;2.88;1.40;;;;;;;8.65;80.19;98593.59;5090738;28;20512;-59
2022/02/06 05:54:15;;;;;;;2.53;1.30;;;;;;;8.65;79.81;98585.75;5089553;28;20044;-59
2022/02/06 05:56:42;;;;;;;3.25;1.30;;;;;;;8.65;80.17;98596.22;5094683;28;20500;-60
2022/02/06 05:59:09;;;;;;;3.80;1.48;;;;;;;8.64;80.19;98589.31;5094544;28;20098;-59
2022/02/06 06:01:35;;;;;;;6.07;1.33;;;;;;;8.67;80.09;98587.31;5094884;28;20059;-59
2022/02/06 06:04:03;;;;;;;4.50;1.27;;;;;;;8.68;80.14;98594.22;5094704;28;20040;-60
2022/02/06 06:06:31;;;;;;;4.63;1.85;;;;;;;8.67;80.24;98589.94;5094689;28;20486;-60
2022/02/06 06:08:58;;;;;;;1.65;1.10;;;;;;;8.68;80.06;98581.09;5094695;28;20044;-61
2022/02/06 06:11:26;;;;;;;3.25;1.40;;;;;;;8.68;80.22;98578.47;5094534;28;20083;-59
2022/02/06 06:13:52;;;;;;;3.78;1.48;;;;;;;8.66;80.30;98575.16;5094674;28;20048;-62
2022/02/06 06:16:19;;;;;;;2.42;1.27;;;;;;;8.66;80.39;98569.03;5094427;28;20044;-62
2022/02/06 06:18:46;;;;;;;2.30;1.27;;;;;;;8.68;80.25;98564.56;5094455;28;20676;-59
2022/02/06 06:21:13;;;;;;;2.35;1.30;;;;;;;8.68;80.11;98552.25;5093154;28;20051;-60
2022/02/06 06:23:43;;;;;;;3.15;1.50;;;;;;;8.67;80.33;98552.38;5094401;28;20043;-61
2022/02/06 06:26:15;;;;;;;2.35;1.45;;;;;;;8.65;80.39;98549.88;5094447;28;20055;-62
2022/02/06 06:28:42;;;;;;;3.22;1.30;;;;;;;8.70;80.54;98563.50;5092979;28;20405;-62
2022/02/06 06:31:10;;;;;;;2.58;1.55;;;;;;;8.68;80.50;98560.13;5094683;28;20056;-63
2022/02/06 06:33:36;;;;;;;3.47;1.80;;;;;;;8.70;80.38;98549.53;5094318;28;20048;-61
2022/02/06 06:36:05;;;;;;;2.28;1.70;;;;;;;8.70;80.37;98553.00;5093903;28;20048;-61
2022/02/06 06:38:33;;;;;;;2.67;1.60;;;;;;;8.69;80.39;98553.97;5093170;28;20056;-59
2022/02/06 06:41:00;;;;;;;3.95;1.58;;;;;;;8.71;80.50;98538.13;5092773;28;20044;-60
2022/02/06 06:43:27;;;;;;;3.92;1.67;;;;;;;8.72;80.40;98527.50;5094023;28;20048;-61
2022/02/06 06:45:53;;;;;;;3.17;1.80;;;;;;;8.73;80.60;98523.09;5094062;28;20117;-63
2022/02/06 06:48:20;;;;;;;3.97;1.90;;;;;;;8.75;80.57;98533.47;5094053;28;20056;-61
2022/02/06 06:50:47;;;;;;;3.17;1.70;;;;;;;8.76;80.37;98525.50;5093606;28;20044;-61
2022/02/06 06:53:14;;;;;;;5.68;1.80;;;;;;;8.78;80.74;98530.66;5093162;28;20763;-62
2022/02/06 06:55:44;;;;;;;4.18;1.55;;;;;;;8.78;80.53;98538.53;5093897;28;20048;-65
2022/02/06 06:58:19;;;;;;;2.65;1.50;;;;;;;8.79;80.19;98535.78;5094077;28;20052;-62
2022/02/06 07:03:25;;;;;;;3.85;2.00;;;;;;;8.79;80.28;98538.41;5093516;28;20512;-61
2022/02/06 07:05:53;;;;;;;2.25;1.90;;;;;;;8.82;80.56;98517.19;5091891;28;20102;-60
2022/02/06 07:08:19;;;;;;;3.58;1.70;;;;;;;8.81;80.58;98512.06;5092322;28;20101;-59
2022/02/06 07:10:47;;;;;;;2.90;1.67;;;;;;;8.84;80.68;98519.72;5092066;28;20056;-60
2022/02/06 07:13:14;;;;;;;1.92;1.55;;;;;;;8.85;80.31;98521.38;5092256;28;20097;-63
2022/02/06 07:15:41;;;;;;;4.05;1.60;;;;;;;8.86;80.66;98520.47;5093328;28;20093;-60
2022/02/06 07:18:07;;;;;;;2.50;1.60;;;;;;;8.86;80.31;98525.72;5092166;28;20488;-60
2022/02/06 07:20:36;;;;;;;3.88;1.98;;;;;;;8.86;80.49;98529.16;5092474;28;20546;-60
2022/02/06 07:23:07;;;;;;;4.82;1.80;;;;;;;8.87;80.54;98527.38;5092669;28;20052;-62
2022/02/06 07:25:35;;;;;;;3.08;1.80;;;;;;;8.88;80.53;98517.72;5092322;28;20044;-64
2022/02/06 07:28:02;;;;;;;2.58;1.90;;;;;;;8.87;80.68;98498.53;5093393;28;20492;-63
2022/02/06 07:30:29;;;;;;;2.80;2.10;;;;;;;8.88;80.83;98494.09;5092011;28;20044;-62
2022/02/06 07:32:55;;;;;;;3.80;2.17;;;;;;;8.86;80.95;98505.53;5092835;28;20550;-63
2022/02/06 07:35:22;;;;;;;4.22;2.08;;;;;;;8.87;80.90;98485.41;5091625;28;20129;-64
2022/02/06 07:37:55;;;;;;;2.45;1.88;;;;;;;8.85;80.83;98489.91;5093097;28;20496;-62
2022/02/06 07:40:23;;;;;;;3.55;1.98;;;;;;;8.88;80.82;98486.22;5093098;28;20109;-61
2022/02/06 07:42:49;;;;;;;4.18;2.13;;;;;;;8.89;80.88;98470.38;5092735;28;20048;-62
2022/02/06 07:45:16;;;;;;;3.65;1.90;;;;;;;8.90;81.17;98466.78;5092171;28;20068;-63
2022/02/06 07:47:45;;;;;;;3.42;1.90;;;;;;;8.88;81.13;98481.81;5093064;28;20052;-62
2022/02/06 07:50:13;;;;;;;3.40;2.10;;;;;;;8.90;80.90;98474.66;5091438;28;20055;-62
2022/02/06 07:52:40;;;;;;;5.85;2.40;;;;;;;8.91;80.95;98449.28;5093011;28;20051;-62
2022/02/06 07:55:08;;;;;;;2.40;2.00;;;;;;;8.92;81.15;98456.19;5092909;28;20101;-60
2022/02/06 07:57:35;;;;;;;3.65;1.75;;;;;;;8.92;81.08;98443.91;5092894;28;20546;-61
2022/02/06 08:00:04;;;;;;;3.88;1.60;;;;;;;8.91;81.06;98446.66;5092679;28;20044;-67
2022/02/06 08:02:31;;;;;;;1.90;1.60;;;;;;;8.93;81.03;98445.59;5092741;28;20044;-61
2022/02/06 08:04:59;;;;;;;5.03;1.80;;;;;;;8.92;81.17;98427.31;5092816;28;20558;-60
2022/02/06 08:07:26;;;;;;;2.05;1.60;;;;;;;8.94;81.15;98421.00;5092597;28;20048;-60
2022/02/06 08:09:57;;;;;;;1.60;1.50;;;;;;;8.94;81.19;98414.94;5092313;28;20052;-60
2022/02/06 08:12:30;;;;;;;3.72;1.52;;;;;;;8.92;81.18;98438.66;5092371;28;20493;-61
2022/02/06 08:15:05;;;;;;;1.60;1.30;;;;;;;8.91;80.79;98395.00;5091567;28;20048;-61
2022/02/06 08:17:35;;;;;;;2.97;1.50;;;;;;;8.94;81.07;98381.66;5091396;28;20040;-60
2022/02/06 08:20:05;;;;;;;2.17;1.55;;;;;;;8.95;80.86;98379.88;5091954;28;20052;-60
2022/02/06 08:22:31;;;;;;;1.55;1.30;;;;;;;8.97;81.27;98373.56;5092350;28;20052;-60
2022/02/06 08:24:58;;;;;;;2.20;1.38;;;;;;;8.97;81.14;98373.56;5092162;28;20056;-61
2022/02/06 08:27:26;;;;;;;2.85;1.40;;;;;;;8.95;81.05;98364.97;5091069;28;20106;-61
2022/02/06 08:29:53;;;;;;;2.15;1.38;;;;;;;8.95;81.13;98356.25;5092118;28;20586;-60
2022/02/06 08:32:22;;;;;;;2.78;1.35;;;;;;;8.96;80.80;98352.66;5092321;28;20101;-61
2022/02/06 08:34:49;;;;;;;5.50;1.60;;;;;;;8.97;80.81;98336.81;5090865;28;20082;-61
2022/02/06 08:37:16;;;;;;;2.47;1.38;;;;;;;8.95;80.81;98333.47;5091905;28;20052;-60
2022/02/06 08:39:44;;;;;;;1.67;1.30;;;;;;;8.96;80.74;98329.91;5091555;28;20496;-68
2022/02/06 08:42:12;;;;;;;2.33;1.40;;;;;;;8.94;80.83;98341.47;5092011;28;20105;-61
2022/02/06 08:44:41;;;;;;;4.25;1.67;;;;;;;8.92;80.89;98317.09;5091713;28;20109;-60
2022/02/06 08:47:11;;;;;;;5.15;1.92;;;;;;;8.93;80.85;98306.50;5090782;28;20044;-61
2022/02/06 08:49:39;;;;;;;2.00;1.60;;;;;;;8.91;80.97;98300.53;5090184;28;20094;-59
2022/02/06 08:52:07;;;;;;;1.85;1.52;;;;;;;8.93;80.73;98303.88;5089902;28;20458;-62
2022/02/06 08:54:36;;;;;;;2.83;1.40;;;;;;;8.93;80.79;98300.44;5091834;28;20040;-60
2022/02/06 08:57:23;;;;;;;2.80;1.70;;;;;;;8.93;81.09;98280.25;5091809;28;20079;-60
2022/02/06 08:59:51;;;;;;;2.53;1.23;;;;;;;8.94;80.96;98284.53;5091707;28;20434;-62
2022/02/06 09:02:18;;;;;;;4.60;1.80;;;;;;;8.94;80.96;98276.66;5091732;28;20101;-62
2022/02/06 09:04:45;;;;;;;3.95;1.75;;;;;;;8.92;80.68;98277.75;5091389;28;20048;-60
2022/02/06 09:07:13;;;;;;;2.72;1.60;;;;;;;8.92;80.93;98269.88;5091476;28;20052;-62
2022/02/06 09:09:45;;;;;;;3.75;1.50;;;;;;;8.93;80.91;98246.13;5090578;28;20093;-62
2022/02/06 09:12:12;;;;;;;2.50;1.60;;;;;;;8.92;81.01;98252.34;5091368;28;20491;-61
2022/02/06 09:14:39;;;;;;;2.10;1.90;;;;;;;8.92;81.12;98259.38;5091644;28;20049;-60
2022/02/06 09:17:06;;;;;;;2.40;1.75;;;;;;;8.92;81.12;98249.72;5090966;28;20055;-60
2022/02/06 09:19:35;;;;;;;2.30;1.50;;;;;;;8.94;81.29;98250.44;5089425;28;20052;-59
2022/02/06 09:22:01;;;;;;;3.88;1.60;;;;;;;8.96;81.17;98250.31;5091233;28;20048;-60
2022/02/06 09:24:28;;;;;;;3.53;1.73;;;;;;;8.95;81.25;98235.53;5091064;28;20040;-60
2022/02/06 09:26:56;;;;;;;2.42;1.90;;;;;;;8.95;81.33;98236.38;5091269;28;20043;-60
2022/02/06 09:29:22;;;;;;;4.55;1.83;;;;;;;8.94;80.98;98234.69;5090482;28;20117;-60
2022/02/06 09:31:51;;;;;;;3.47;1.77;;;;;;;8.97;81.51;98223.16;5090833;28;20485;-60
2022/02/06 09:36:47;;;;;;;2.72;1.58;;;;;;;9.00;81.12;98215.03;5091023;28;20480;-59
2022/02/06 09:39:15;;;;;;;3.45;1.90;;;;;;;8.99;80.96;98206.31;5089516;28;20690;-60
2022/02/06 09:41:45;;;;;;;2.75;1.60;;;;;;;9.00;81.25;98199.28;5089558;28;20484;-59
2022/02/06 09:44:16;;;;;;;3.20;1.50;;;;;;;9.01;81.16;98189.63;5089640;28;20089;-59
2022/02/06 09:46:49;;;;;;;2.53;1.65;;;;;;;9.03;81.19;98179.81;5090318;28;20097;-61
2022/02/06 09:49:20;;;;;;;4.03;1.55;;;;;;;9.02;80.99;98162.41;5090690;28;20087;-60
2022/02/06 09:51:47;;;;;;;2.85;1.90;;;;;;;9.04;81.41;98174.47;5090765;28;20097;-59
2022/02/06 09:54:16;;;;;;;3.40;1.35;;;;;;;9.05;81.19;98152.50;5090761;28;20047;-59
2022/02/06 09:56:46;;;;;;;4.60;1.83;;;;;;;9.05;81.44;98149.06;5090598;28;20045;-59
2022/02/06 09:59:18;;;;;;;2.75;1.58;;;;;;;9.05;81.30;98141.19;5089698;28;20060;-60
2022/02/06 10:01:47;;;;;;;4.47;1.45;;;;;;;9.06;81.24;98141.09;5090671;28;20047;-59
2022/02/06 10:04:19;;;;;;;4.35;1.88;;;;;;;9.07;80.89;98131.41;5089657;28;20052;-59
2022/02/06 10:07:01;;;;;;;2.88;1.38;;;;;;;9.09;81.28;98130.31;5089335;28;20551;-60
2022/02/06 10:09:51;;;;;;;1.65;1.20;;;;;;;9.07;80.31;98123.53;5090593;28;20044;-59
2022/02/06 10:12:20;;;;;;;2.88;1.10;;;;;;;9.11;81.10;98109.22;5089341;28;20537;-59
2022/02/06 10:14:48;;;;;;;2.28;1.20;;;;;;;9.12;80.53;98114.34;5090496;28;20478;-59
2022/02/06 10:17:15;;;;;;;2.30;1.30;;;;;;;9.12;81.03;98119.59;5089193;28;20051;-59
2022/02/06 10:19:51;;;;;;;2.10;1.15;;;;;;;9.12;80.51;98095.97;5088689;28;20151;-59
2022/02/06 10:22:30;;;;;;;1.65;0.85;;;;;;;9.12;80.29;98077.59;5089266;28;20381;-60
2022/02/06 10:24:59;;;;;;;3.72;1.10;;;;;;;9.16;80.87;98077.38;5090747;28;20051;-60
2022/02/06 10:27:48;;;;;;;1.75;0.95;;;;;;;9.11;80.00;98052.31;5089342;28;20040;-60
2022/02/06 10:30:45;;;;;;;1.38;1.00;;;;;;;9.12;79.93;98045.25;5090521;28;20443;-60
2022/02/06 10:33:18;;;;;;;2.25;1.30;;;;;;;9.15;80.22;98028.44;5089847;28;20048;-59
2022/02/06 10:35:51;;;;;;;1.45;1.10;;;;;;;9.14;80.68;98019.72;5090287;28;20135;-60
2022/02/06 10:38:21;;;;;;;1.60;0.93;;;;;;;9.15;80.28;98033.69;5090607;28;20101;-59
2022/02/06 10:41:13;;;;;;;1.80;1.10;;;;;;;9.10;80.24;98013.91;5090998;28;20052;-60
2022/02/06 10:44:06;;;;;;;2.42;1.08;;;;;;;9.10;80.17;97994.69;5093063;28;20084;-59
2022/02/06 10:46:44;;;;;;;1.10;0.88;;;;;;;9.15;80.51;97996.94;5092970;28;20058;-60
2022/02/06 10:49:13;;;;;;;4.20;1.08;;;;;;;9.15;80.58;97989.06;5092840;28;20048;-60
2022/02/06 10:51:43;;;;;;;2.13;1.30;;;;;;;9.12;80.55;97975.22;5092497;28;20113;-59
2022/02/06 10:54:20;;;;;;;1.92;1.20;;;;;;;9.10;80.26;97968.44;5093917;28;20527;-60
2022/02/06 10:57:10;;;;;;;2.33;1.38;;;;;;;9.08;80.10;97965.09;5093988;28;20040;-61
2022/02/06 10:59:43;;;;;;;1.48;1.13;;;;;;;9.10;80.37;97931.69;5092351;28;20044;-60
2022/02/06 11:02:22;;;;;;;2.72;1.00;;;;;;;9.06;79.98;97925.84;5093703;28;20500;-60
2022/02/06 11:04:54;;;;;;;2.15;1.10;;;;;;;9.07;80.60;97931.91;5093981;28;20048;-60
2022/02/06 11:07:21;;;;;;;2.65;1.02;;;;;;;9.10;80.83;97918.56;5093317;28;20442;-61
2022/02/06 11:09:47;;;;;;;2.33;1.08;;;;;;;9.09;80.83;97919.53;5093035;28;20048;-60
2022/02/06 11:12:21;;;;;;;3.58;1.27;;;;;;;9.04;80.27;97926.94;5093639;28;20050;-61
2022/02/06 11:14:59;;;;;;;1.30;1.00;;;;;;;9.07;80.84;97906.53;5092457;28;20507;-60
2022/02/06 11:17:27;;;;;;;1.75;0.95;;;;;;;9.06;81.20;97888.25;5093508;28;20545;-60
2022/02/06 11:20:08;;;;;;;3.17;1.23;;;;;;;9.03;80.52;97878.00;5075536;28;20086;-60
2022/02/06 11:22:51;;;;;;;3.70;0.95;;;;;;;9.05;80.40;97876.09;5092115;28;20457;-62
2022/02/06 11:25:18;;;;;;;2.17;1.10;;;;;;;9.10;80.80;97872.16;5093701;28;20044;-61
2022/02/06 11:27:45;;;;;;;3.13;0.93;;;;;;;9.09;80.84;97859.16;5093255;28;20048;-60
2022/02/06 11:30:12;;;;;;;2.33;1.00;;;;;;;9.09;80.87;97840.78;5092624;28;20052;-61
2022/02/06 11:32:40;;;;;;;1.30;0.70;;;;;;;9.08;80.74;97833.88;5093071;28;20052;-60
2022/02/06 11:35:12;;;;;;;0.93;0.70;;;;;;;9.07;80.89;97826.94;5092146;28;20706;-60
2022/02/06 11:43:54;;;;;;;1.17;0.75;;;;;;;8.99;80.26;97832.81;5093265;28;20044;-59
2022/02/06 11:46:35;;;;;;;5.50;0.68;;;;;;;9.01;80.33;97795.97;5092921;28;20072;-59
2022/02/06 11:49:13;;;;;;;1.17;0.60;;;;;;;8.96;80.51;97797.16;5092874;28;20055;-61
2022/02/06 11:51:59;;;;;;;0.82;0.80;;;;;;;8.94;80.22;97787.75;5091516;28;20044;-60
2022/02/06 11:54:43;;;;;;;1.40;0.70;;;;;;;8.96;80.53;97780.59;5092345;28;20048;-62
2022/02/06 11:57:33;;;;;;;0.85;0.63;;;;;;;8.95;80.55;97764.03;5091530;28;20044;-59
2022/02/06 12:00:02;;;;;;;1.25;0.70;;;;;;;8.96;80.72;97786.69;5092664;28;20052;-59
2022/02/06 12:02:37;;;;;;;3.42;0.70;;;;;;;8.96;80.48;97770.94;5091244;28;20097;-60
2022/02/06 12:05:24;;;;;;;1.15;0.60;;;;;;;8.94;80.38;97759.72;5092685;28;20101;-61
2022/02/06 12:08:10;;;;;;;0.80;0.50;;;;;;;8.90;80.50;97762.72;5091274;28;20051;-61
2022/02/06 12:10:36;;;;;;;1.48;0.60;;;;;;;8.92;81.27;97766.03;5091104;28;20124;-60
2022/02/06 12:15:53;;;;;;;2.00;0.60;;;;;;;8.90;81.29;97742.56;5092386;28;20451;-60
2022/02/06 12:18:27;;;;;;;1.25;0.57;;;;;;;8.90;80.90;97747.81;5092140;28;20044;-60
2022/02/06 12:21:07;;;;;;;3.55;0.70;;;;;;;8.90;80.72;97747.81;5090819;28;20545;-60
2022/02/06 12:23:40;;;;;;;0.60;0.60;;;;;;;8.90;81.05;97720.75;5092275;28;20424;-60
2022/02/06 12:26:48;;;;;;;0.95;0.60;;;;;;;8.86;80.38;97707.88;5090962;28;20048;-61
2022/02/06 12:29:19;;;;;;;0.93;0.47;;;;;;;8.88;80.86;97692.00;5091652;28;20093;-60
2022/02/06 12:31:58;;;;;;;1.15;0.50;;;;;;;8.89;80.97;97709.41;5092195;28;20101;-60
2022/02/06 12:37:39;;;;;;;2.25;0.65;;;;;;;8.91;81.47;97711.91;5071551;28;20052;-60
2022/02/06 12:40:09;;;;;;;1.63;0.70;;;;;;;8.89;81.38;97725.16;5071642;28;20382;-60
2022/02/06 12:42:41;;;;;;;0.55;0.50;;;;;;;8.90;81.35;97736.50;5071652;28;20051;-61
2022/02/06 12:45:11;;;;;;;0.68;0.47;;;;;;;8.91;81.67;97748.66;5087229;28;20054;-60
2022/02/06 12:47:40;;;;;;;2.28;0.60;;;;;;;8.93;81.64;97831.53;5070617;28;20044;-61
2022/02/06 12:50:22;;;;;;;0.43;0.40;;;;;;;8.93;80.57;97839.41;5070197;28;20048;-60
2022/02/06 12:52:51;;;;;;;0.70;0.28;;;;;;;8.93;78.85;97844.66;5086014;28;20044;-61
2022/02/06 12:55:23;;;;;;;0.20;0.20;;;;;;;8.86;77.83;97852.19;5091662;28;20130;-61
2022/02/06 12:57:51;;;;;;;0.20;0.20;;;;;;;8.77;77.62;97839.81;5090293;28;20056;-61
2022/02/06 13:00:37;;;;;;;0.20;0.20;;;;;;;8.62;76.85;97849.75;5090224;28;20098;-61
2022/02/06 13:03:36;;;;;;;0.45;0.30;;;;;;;8.48;76.41;97843.78;5090132;28;20433;-60
2022/02/06 13:06:08;;;;;;;0.17;0.17;;;;;;;8.38;77.15;97848.09;5090144;28;20636;-60
2022/02/06 13:08:38;;;;;;;0.20;0.20;;;;;;;8.27;77.16;97841.06;5089614;28;20040;-60
2022/02/06 13:11:15;;;;;;;0.20;0.20;;;;;;;8.15;77.21;97861.19;5090136;28;20488;-61
2022/02/06 13:14:01;;;;;;;0.17;0.13;;;;;;;8.05;76.97;97863.72;5091361;28;20135;-60
2022/02/06 13:26:59;;;;;;;0.52;0.20;;;;;;;7.77;78.72;97881.53;5090148;28;20052;-60
2022/02/06 13:29:53;;;;;;;0.32;0.32;;;;;;;7.74;78.80;97873.91;5090849;28;20101;-59
2022/02/06 13:35:58;;;;;;;0.93;0.30;;;;;;;7.67;78.36;97886.63;5090722;28;20078;-61
2022/02/06 13:38:00;;;;;;;0.52;0.40;;;;;;;7.64;78.58;97894.72;5090287;28;20059;-60
2022/02/06 13:40:31;;;;;;;0.40;0.40;;;;;;;7.63;79.05;97890.41;5089375;28;20412;-60
2022/02/06 13:43:01;;;;;;;1.23;0.40;;;;;;;7.59;78.90;97902.06;5090540;28;20085;-61
2022/02/06 13:45:29;;;;;;;1.58;0.50;;;;;;;7.58;79.04;97900.41;5090438;28;20089;-61
2022/02/06 13:47:57;;;;;;;0.68;0.55;;;;;;;7.57;79.59;97890.88;5089897;28;20089;-59
2022/02/06 13:50:24;;;;;;;0.63;0.50;;;;;;;7.58;79.76;97881.25;5089484;28;20051;-60
2022/02/06 13:53:19;;;;;;;0.52;0.52;;;;;;;7.55;78.82;97890.16;5090870;28;20047;-60
2022/02/06 13:56:03;;;;;;;0.93;0.68;;;;;;;7.58;79.49;97881.25;5090937;28;20048;-60
2022/02/06 13:58:31;;;;;;;2.95;0.65;;;;;;;7.61;79.99;97889.72;5090836;28;20066;-60
2022/02/06 14:01:02;;;;;;;4.05;0.85;;;;;;;7.62;79.66;97882.72;5088946;28;20557;-60
2022/02/06 14:03:49;;;;;;;0.55;0.55;;;;;;;7.60;78.97;97889.81;5088885;28;20048;-59
2022/02/06 14:06:19;;;;;;;2.20;0.68;;;;;;;7.64;79.93;97888.66;5089055;28;20063;-60
2022/02/06 14:09:22;;;;;;;0.55;0.50;;;;;;;7.68;80.11;97897.94;5090111;28;20052;-63
2022/02/06 14:12:04;;;;;;;1.17;0.60;;;;;;;7.67;79.45;97891.03;5090375;28;20047;-61
2022/02/06 14:14:33;;;;;;;0.95;0.55;;;;;;;7.71;80.34;97896.88;5090356;28;20462;-62
2022/02/06 14:17:35;;;;;;;0.98;0.57;;;;;;;7.72;79.75;97898.53;5093942;28;20135;-61